createdAt,value
2023-05-05T00:03:59.502Z,18.25
2023-05-05T00:14:07.952Z,18.25
2023-05-05T00:24:14.749Z,18.23
2023-05-05T00:34:21.084Z,18.23
2023-05-05T00:44:28.354Z,18.22
2023-05-05T00:54:35.500Z,18.20
2023-05-05T01:04:42.856Z,18.22
2023-05-05T01:14:49.568Z,18.20
2023-05-05T01:24:56.934Z,18.20
2023-05-05T01:35:03.768Z,18.18
2023-05-05T01:45:10.857Z,18.18
2023-05-05T01:55:17.802Z,18.20
2023-05-05T02:05:24.916Z,18.20
2023-05-05T02:15:31.876Z,18.17
2023-05-05T02:25:39.059Z,18.18
2023-05-05T02:35:45.919Z,18.18
2023-05-05T02:45:53.016Z,18.15
2023-05-05T02:55:59.966Z,18.17
2023-05-05T03:06:07.002Z,18.15
2023-05-05T03:16:14.409Z,18.15
2023-05-05T03:26:21.984Z,18.15
2023-05-05T03:36:29.563Z,18.15
2023-05-05T03:46:36.312Z,18.15
2023-05-05T03:56:43.177Z,18.12
2023-05-05T04:06:50.528Z,18.14
2023-05-05T04:16:57.295Z,18.12
2023-05-05T04:27:04.254Z,18.14
2023-05-05T04:37:11.636Z,18.15
2023-05-05T04:47:18.483Z,18.15
2023-05-05T04:57:25.544Z,18.20
2023-05-05T05:07:32.520Z,18.20
2023-05-05T05:17:39.958Z,18.35
2023-05-05T05:27:55.286Z,18.51
2023-05-05T05:38:00.198Z,18.64
2023-05-05T05:48:07.829Z,18.75
2023-05-05T05:58:14.975Z,18.75
2023-05-05T06:08:22.573Z,18.88
2023-05-05T06:18:32.147Z,18.96
2023-05-05T06:28:39.241Z,19.05
2023-05-05T06:38:46.010Z,19.05
2023-05-05T06:48:52.815Z,19.10
2023-05-05T06:59:00.245Z,19.14
2023-05-05T07:09:07.215Z,19.27
2023-05-05T07:19:14.492Z,19.34
2023-05-05T07:29:20.951Z,19.39
2023-05-05T07:39:28.554Z,19.52
2023-05-05T07:49:35.471Z,19.63
2023-05-05T07:59:42.726Z,19.75
2023-05-05T08:09:49.551Z,19.80
2023-05-05T08:19:56.781Z,19.92
2023-05-05T08:30:04.106Z,19.95
2023-05-05T08:40:11.716Z,19.95
2023-05-05T08:50:19.548Z,19.92
2023-05-05T09:00:26.705Z,19.98
2023-05-05T09:10:33.831Z,19.98
2023-05-05T09:20:41.358Z,19.95
2023-05-05T09:30:47.751Z,19.95
2023-05-05T09:40:55.716Z,19.86
2023-05-05T09:51:03.092Z,19.83
2023-05-05T10:01:09.880Z,19.73
2023-05-05T10:11:16.933Z,19.69
2023-05-05T10:21:24.193Z,19.56
2023-05-05T10:31:31.748Z,19.56
2023-05-05T10:41:38.493Z,19.46
2023-05-05T10:51:46.073Z,19.46
2023-05-05T11:01:53.459Z,19.38
2023-05-05T11:12:01.015Z,19.38
2023-05-05T11:22:08.216Z,19.34
2023-05-05T11:32:15.867Z,19.24
2023-05-05T11:42:23.379Z,19.24
2023-05-05T11:52:30.584Z,19.23
2023-05-05T12:02:37.460Z,19.23
2023-05-05T12:12:44.620Z,19.20
2023-05-05T12:22:51.615Z,19.18
2023-05-05T12:32:58.748Z,19.17
2023-05-05T12:43:06.048Z,19.16
2023-05-05T12:53:12.701Z,19.12
2023-05-05T13:03:20.017Z,19.12
2023-05-05T13:13:27.826Z,19.12
2023-05-05T13:23:35.062Z,19.10
2023-05-05T13:33:41.941Z,19.12
2023-05-05T13:43:49.035Z,19.08
2023-05-05T13:53:55.886Z,19.09
2023-05-05T14:04:05.421Z,19.07
2023-05-05T14:14:13.176Z,19.07
2023-05-05T14:24:20.233Z,19.08
2023-05-05T14:34:26.948Z,19.05
2023-05-05T14:44:34.533Z,19.08
2023-05-05T14:54:41.313Z,19.08
2023-05-05T15:04:49.761Z,19.05
2023-05-05T15:14:57.409Z,19.05
2023-05-05T15:25:05.501Z,19.05
2023-05-05T15:35:12.216Z,19.03
2023-05-05T15:45:19.522Z,19.02
2023-05-05T15:55:26.260Z,19.03
2023-05-05T16:05:33.498Z,19.00
2023-05-05T16:15:40.498Z,18.98
2023-05-05T16:25:47.485Z,18.98
2023-05-05T16:35:54.939Z,18.95
2023-05-05T16:46:02.037Z,18.96
2023-05-05T16:56:09.665Z,18.96
2023-05-05T17:06:16.823Z,18.95
2023-05-05T17:16:24.078Z,18.90
2023-05-05T17:26:31.073Z,18.88
2023-05-05T17:36:38.026Z,18.88
2023-05-05T17:46:45.059Z,18.88
2023-05-05T17:56:53.286Z,18.84
2023-05-05T18:07:00.192Z,18.84
2023-05-05T18:17:07.189Z,18.83
2023-05-05T18:27:14.305Z,18.80
2023-05-05T18:37:20.869Z,18.77
2023-05-05T18:47:28.231Z,18.75
2023-05-05T18:57:35.165Z,18.73
2023-05-05T19:07:42.661Z,18.69
2023-05-05T19:17:50.018Z,18.69
2023-05-05T19:27:57.144Z,18.71
2023-05-05T19:38:05.735Z,18.68
2023-05-05T19:48:12.796Z,18.68
2023-05-05T19:58:19.152Z,18.66
2023-05-05T20:08:26.745Z,18.66
2023-05-05T20:18:34.438Z,18.66
2023-05-05T20:28:44.838Z,18.63
2023-05-05T20:38:52.519Z,18.63
2023-05-05T20:49:00.066Z,18.61
2023-05-05T20:59:06.500Z,18.61
2023-05-05T21:09:13.647Z,18.63
2023-05-05T21:19:20.952Z,18.61
2023-05-05T21:29:27.673Z,18.61
2023-05-05T21:39:35.257Z,18.59
2023-05-05T21:49:42.915Z,18.59
2023-05-05T21:59:50.306Z,18.59
2023-05-05T22:09:56.799Z,18.59
2023-05-05T22:20:03.488Z,18.56
2023-05-05T22:30:10.488Z,18.56
2023-05-05T22:40:17.919Z,18.56
2023-05-05T22:50:25.716Z,18.56
2023-05-05T23:00:33.549Z,18.57
2023-05-05T23:10:40.513Z,18.57
2023-05-05T23:20:47.225Z,18.55
2023-05-05T23:30:54.523Z,18.54
2023-05-05T23:41:01.375Z,18.55
2023-05-05T23:51:08.565Z,18.56
